createdAt,value
2022-12-15T00:04:32.201Z,30.50
2022-12-15T00:09:32.285Z,31.20
2022-12-15T00:14:32.212Z,31.00
2022-12-15T00:19:32.075Z,31.40
2022-12-15T00:24:33.013Z,33.40
2022-12-15T00:29:31.989Z,32.70
2022-12-15T00:34:31.918Z,31.70
2022-12-15T00:39:31.813Z,33.30
2022-12-15T00:44:31.785Z,33.90
2022-12-15T00:49:31.722Z,34.80
2022-12-15T00:54:31.642Z,32.80
2022-12-15T00:59:31.544Z,33.40
2022-12-15T01:04:31.591Z,34.20
2022-12-15T01:09:31.501Z,34.30
2022-12-15T01:14:31.530Z,33.90
2022-12-15T01:19:31.283Z,33.40
2022-12-15T01:24:31.347Z,33.00
2022-12-15T01:29:31.188Z,33.20
2022-12-15T01:34:31.108Z,31.80
2022-12-15T01:39:31.045Z,31.00
2022-12-15T01:44:31.133Z,30.60
2022-12-15T01:49:31.824Z,28.60
2022-12-15T01:54:30.880Z,28.00
2022-12-15T01:59:30.905Z,27.10
2022-12-15T02:04:30.725Z,27.40
2022-12-15T02:09:30.671Z,26.80
2022-12-15T02:14:30.744Z,27.60
2022-12-15T02:19:30.635Z,24.50
2022-12-15T02:24:30.487Z,24.50
2022-12-15T02:29:30.578Z,24.20
2022-12-15T02:34:30.376Z,23.80
2022-12-15T02:39:30.273Z,25.70
2022-12-15T02:44:30.227Z,26.50
2022-12-15T02:49:30.193Z,25.60
2022-12-15T02:54:30.143Z,25.50
2022-12-15T02:59:30.025Z,26.50
2022-12-15T03:04:30.005Z,26.80
2022-12-15T03:09:29.921Z,27.40
2022-12-15T03:14:29.848Z,26.50
2022-12-15T03:19:29.819Z,26.00
2022-12-15T03:24:29.698Z,26.60
2022-12-15T03:29:29.644Z,25.50
2022-12-15T03:34:29.604Z,26.30
2022-12-15T03:39:29.534Z,25.70
2022-12-15T03:44:29.505Z,25.80
2022-12-15T03:49:29.429Z,24.60
2022-12-15T03:54:29.371Z,25.30
2022-12-15T03:59:29.322Z,24.70
2022-12-15T04:04:29.206Z,24.60
2022-12-15T04:09:29.140Z,25.40
2022-12-15T04:14:29.081Z,24.60
2022-12-15T04:19:29.086Z,26.20
2022-12-15T04:24:28.994Z,27.40
2022-12-15T04:29:28.900Z,27.90
2022-12-15T04:34:28.892Z,29.10
2022-12-15T04:39:28.786Z,29.60
2022-12-15T04:44:28.723Z,28.20
2022-12-15T04:49:28.682Z,30.00
2022-12-15T04:54:28.628Z,28.40
2022-12-15T04:59:28.575Z,29.30
2022-12-15T05:04:28.545Z,30.80
2022-12-15T05:09:28.465Z,31.20
2022-12-15T05:14:28.309Z,29.80
2022-12-15T05:19:28.266Z,30.80
2022-12-15T05:24:28.191Z,29.90
2022-12-15T05:29:28.167Z,30.00
2022-12-15T05:34:28.078Z,29.30
2022-12-15T05:39:28.041Z,28.70
2022-12-15T05:44:28.034Z,45.20
2022-12-15T05:49:27.957Z,30.10
2022-12-15T05:54:27.842Z,28.70
2022-12-15T05:59:27.779Z,25.50
2022-12-15T06:04:27.760Z,25.00
2022-12-15T06:09:27.666Z,24.70
2022-12-15T06:14:27.605Z,25.30
2022-12-15T06:19:27.498Z,24.70
2022-12-15T06:24:27.531Z,24.30
2022-12-15T06:29:27.447Z,26.40
2022-12-15T06:34:27.356Z,24.80
2022-12-15T06:39:27.266Z,25.40
2022-12-15T06:44:27.269Z,25.30
2022-12-15T06:49:27.152Z,26.80
2022-12-15T06:54:27.118Z,25.70
2022-12-15T06:59:27.049Z,26.30
2022-12-15T07:04:27.103Z,25.60
2022-12-15T07:09:26.903Z,25.20
2022-12-15T07:14:26.823Z,26.10
2022-12-15T07:19:26.864Z,26.20
2022-12-15T07:24:26.715Z,25.80
2022-12-15T07:29:26.646Z,25.30
2022-12-15T07:34:26.582Z,25.40
2022-12-15T07:39:26.632Z,25.30
2022-12-15T07:44:26.457Z,24.70
2022-12-15T07:49:26.423Z,24.00
2022-12-15T07:54:26.408Z,22.50
2022-12-15T07:59:26.279Z,19.30
2022-12-15T08:04:26.306Z,19.30
2022-12-15T08:09:26.172Z,18.50
2022-12-15T08:14:26.152Z,18.30
2022-12-15T08:19:26.070Z,18.40
2022-12-15T08:24:26.068Z,18.90
2022-12-15T08:29:50.627Z,19.00
2022-12-15T08:34:26.908Z,19.60
2022-12-15T08:39:25.766Z,19.00
2022-12-15T08:44:25.805Z,19.00
2022-12-15T08:49:25.758Z,19.90
2022-12-15T08:54:25.580Z,20.00
2022-12-15T08:59:25.535Z,20.10
2022-12-15T09:04:25.481Z,19.90
2022-12-15T09:09:25.422Z,19.90
2022-12-15T09:14:29.044Z,19.80
2022-12-15T09:19:25.289Z,20.50
2022-12-15T09:24:34.387Z,20.10
2022-12-15T09:29:26.230Z,19.90
2022-12-15T09:34:25.210Z,18.90
2022-12-15T09:39:25.006Z,18.50
2022-12-15T09:44:25.034Z,18.90
2022-12-15T09:49:24.909Z,20.90
2022-12-15T09:54:24.933Z,20.70
2022-12-15T09:59:24.735Z,19.80
2022-12-15T10:04:24.794Z,18.90
2022-12-15T10:09:24.645Z,19.70
2022-12-15T10:14:24.593Z,18.30
2022-12-15T10:19:24.494Z,18.50
2022-12-15T10:25:07.301Z,18.60
2022-12-15T10:29:25.410Z,17.60
2022-12-15T10:34:24.645Z,18.10
2022-12-15T10:39:24.338Z,17.40
2022-12-15T10:44:30.320Z,16.90
2022-12-15T10:49:25.201Z,16.30
2022-12-15T10:54:24.037Z,16.30
2022-12-15T10:59:23.997Z,16.50
2022-12-15T11:04:23.998Z,15.70
2022-12-15T11:09:23.889Z,15.60
2022-12-15T11:14:23.803Z,16.40
2022-12-15T11:19:23.758Z,16.30
2022-12-15T11:24:23.756Z,17.00
2022-12-15T11:29:23.651Z,18.50
2022-12-15T11:34:23.636Z,18.40
2022-12-15T11:39:23.523Z,18.80
2022-12-15T11:44:23.399Z,19.90
2022-12-15T11:49:23.382Z,19.60
2022-12-15T11:54:23.356Z,19.80
2022-12-15T11:59:23.232Z,20.10
2022-12-15T12:04:23.177Z,20.00
2022-12-15T12:09:23.127Z,19.30
2022-12-15T12:14:23.196Z,17.60
2022-12-15T12:19:23.045Z,19.00
2022-12-15T12:24:22.938Z,18.20
2022-12-15T12:29:22.810Z,17.00
2022-12-15T12:34:22.788Z,17.40
2022-12-15T12:39:22.737Z,17.80
2022-12-15T12:44:22.660Z,16.90
2022-12-15T12:49:26.458Z,16.20
2022-12-15T12:54:23.451Z,16.40
2022-12-15T12:59:22.473Z,17.20
2022-12-15T13:04:22.400Z,17.80
2022-12-15T13:09:22.387Z,17.40
2022-12-15T13:14:26.052Z,17.10
2022-12-15T13:19:22.194Z,17.70
2022-12-15T13:24:22.138Z,17.70
2022-12-15T13:29:22.080Z,18.30
2022-12-15T13:34:22.022Z,18.40
2022-12-15T13:39:21.971Z,18.20
2022-12-15T13:44:21.863Z,18.30
2022-12-15T13:49:21.792Z,17.30
2022-12-15T13:54:21.810Z,18.90
2022-12-15T13:59:21.681Z,19.10
2022-12-15T14:04:21.667Z,19.30
2022-12-15T14:09:21.553Z,20.00
2022-12-15T14:14:21.514Z,20.60
2022-12-15T14:19:21.529Z,21.50
2022-12-15T14:29:22.348Z,21.60
2022-12-15T14:34:21.232Z,21.30
2022-12-15T14:39:21.155Z,23.10
2022-12-15T14:44:31.505Z,22.70
2022-12-15T14:49:22.362Z,23.10
2022-12-15T14:54:20.969Z,23.50
2022-12-15T14:59:20.921Z,24.70
2022-12-15T15:03:14.310Z,20.70
2022-12-15T15:04:20.973Z,26.00
2022-12-15T15:09:20.839Z,26.30
2022-12-15T15:14:20.742Z,27.80
2022-12-15T15:19:20.695Z,26.90
2022-12-15T15:24:20.626Z,26.40
2022-12-15T15:29:20.880Z,27.80
2022-12-15T15:34:20.559Z,27.30
2022-12-15T15:39:20.410Z,27.40
2022-12-15T15:44:20.318Z,28.10
2022-12-15T15:49:20.373Z,26.50
2022-12-15T15:54:20.213Z,28.90
2022-12-15T15:59:20.205Z,28.30
2022-12-15T16:04:20.092Z,28.30
2022-12-15T16:09:20.019Z,29.70
2022-12-15T16:14:19.971Z,28.70
2022-12-15T16:19:19.872Z,28.90
2022-12-15T16:24:19.903Z,28.00
2022-12-15T16:29:19.770Z,27.80
2022-12-15T16:34:19.689Z,27.00
2022-12-15T16:39:19.631Z,27.90
2022-12-15T16:44:19.588Z,28.10
2022-12-15T16:49:19.991Z,27.20
2022-12-15T16:54:19.450Z,26.80
2022-12-15T16:59:35.956Z,29.20
2022-12-15T17:04:20.400Z,26.80
2022-12-15T17:09:19.265Z,29.20
2022-12-15T17:14:19.216Z,31.50
2022-12-15T17:19:21.278Z,31.90
2022-12-15T17:24:19.165Z,31.00
2022-12-15T17:29:19.038Z,28.10
2022-12-15T17:34:19.151Z,32.70
2022-12-15T17:39:18.866Z,33.00
2022-12-15T17:44:36.767Z,33.40
2022-12-15T17:49:19.870Z,33.40
2022-12-15T17:54:21.462Z,32.60
2022-12-15T17:59:18.647Z,30.90
2022-12-15T18:04:18.609Z,30.10
2022-12-15T18:09:18.544Z,29.90
2022-12-15T18:14:18.543Z,32.50
2022-12-15T18:19:18.503Z,33.30
2022-12-15T18:24:18.300Z,32.90
2022-12-15T18:29:18.387Z,31.00
2022-12-15T18:34:18.258Z,30.50
2022-12-15T18:39:18.314Z,31.80
2022-12-15T18:44:18.125Z,31.20
2022-12-15T18:49:17.991Z,31.80
2022-12-15T18:54:17.991Z,31.00
2022-12-15T18:59:18.052Z,29.40
2022-12-15T19:04:17.899Z,33.00
2022-12-15T19:09:17.776Z,30.70
2022-12-15T19:14:17.749Z,31.00
2022-12-15T19:19:17.616Z,31.80
2022-12-15T19:24:17.554Z,33.70
2022-12-15T19:29:17.531Z,31.40
2022-12-15T19:34:17.468Z,31.40
2022-12-15T19:39:17.440Z,30.50
2022-12-15T19:44:17.363Z,31.40
2022-12-15T19:49:17.267Z,31.30
2022-12-15T19:54:17.187Z,31.90
2022-12-15T19:59:17.174Z,31.90
2022-12-15T20:04:18.459Z,30.40
2022-12-15T20:09:16.977Z,30.00
2022-12-15T20:14:16.930Z,31.30
2022-12-15T20:19:16.916Z,32.50
2022-12-15T20:24:16.918Z,30.30
2022-12-15T20:29:17.163Z,34.70
2022-12-15T20:34:16.776Z,34.40
2022-12-15T20:39:16.563Z,34.40
2022-12-15T20:44:16.586Z,34.20
2022-12-15T20:49:16.518Z,33.00
2022-12-15T20:54:16.536Z,33.10
2022-12-15T20:59:16.384Z,31.90
2022-12-15T21:04:16.292Z,34.30
2022-12-15T21:09:17.038Z,31.70
2022-12-15T21:14:16.214Z,32.60
2022-12-15T21:19:20.753Z,32.50
2022-12-15T21:24:17.032Z,32.20
2022-12-15T21:29:15.947Z,32.60
2022-12-15T21:34:16.073Z,31.20
2022-12-15T21:39:15.815Z,29.90
2022-12-15T21:44:15.794Z,30.60
2022-12-15T21:49:15.791Z,31.00
2022-12-15T21:54:15.641Z,32.70
2022-12-15T21:59:15.687Z,31.70
2022-12-15T22:04:15.555Z,33.00
2022-12-15T22:09:15.495Z,34.80
2022-12-15T22:14:15.717Z,32.60
2022-12-15T22:19:15.358Z,32.00
2022-12-15T22:24:15.293Z,32.70
2022-12-15T22:29:15.225Z,31.40
2022-12-15T22:34:15.164Z,30.30
2022-12-15T22:39:15.235Z,32.60
2022-12-15T22:44:15.059Z,32.50
2022-12-15T22:49:14.989Z,30.80
2022-12-15T22:54:14.839Z,31.30
2022-12-15T22:59:14.797Z,33.20
2022-12-15T23:04:14.777Z,31.40
2022-12-15T23:09:14.728Z,31.00
2022-12-15T23:14:14.599Z,31.40
2022-12-15T23:19:14.658Z,32.00
2022-12-15T23:24:14.452Z,32.90
2022-12-15T23:29:14.490Z,31.80
2022-12-15T23:34:14.391Z,33.50
2022-12-15T23:39:14.265Z,32.00
2022-12-15T23:44:14.257Z,35.80
2022-12-15T23:49:14.169Z,35.30
2022-12-15T23:54:14.071Z,33.60
2022-12-15T23:59:14.015Z,34.30
